createdAt,value
2022-12-20T00:02:29.998Z,3.14
2022-12-20T00:05:40.190Z,3.23
2022-12-20T00:08:50.721Z,3.18
2022-12-20T00:11:56.447Z,3.18
2022-12-20T00:15:01.716Z,3.21
2022-12-20T00:18:10.641Z,3.21
2022-12-20T00:21:17.583Z,3.21
2022-12-20T00:24:26.542Z,3.17
2022-12-20T00:27:32.500Z,3.18
2022-12-20T00:30:38.804Z,3.20
2022-12-20T00:33:48.103Z,3.14
2022-12-20T00:36:54.098Z,3.14
2022-12-20T00:40:02.618Z,3.18
2022-12-20T00:43:08.510Z,3.11
2022-12-20T00:46:15.754Z,3.04
2022-12-20T00:49:20.814Z,3.04
2022-12-20T00:52:26.716Z,3.04
2022-12-20T00:55:35.955Z,2.86
2022-12-20T00:58:44.623Z,2.99
2022-12-20T01:01:51.784Z,2.90
2022-12-20T01:05:01.616Z,2.95
2022-12-20T01:08:13.235Z,2.93
2022-12-20T01:11:22.710Z,2.97
2022-12-20T01:14:28.862Z,3.02
2022-12-20T01:17:37.281Z,2.91
2022-12-20T01:20:42.829Z,2.93
2022-12-20T01:23:48.992Z,2.93
2022-12-20T01:26:57.463Z,2.90
2022-12-20T01:30:04.252Z,2.87
2022-12-20T01:33:10.971Z,2.91
2022-12-20T01:36:18.260Z,2.81
2022-12-20T01:39:24.782Z,2.83
2022-12-20T01:42:33.445Z,2.86
2022-12-20T01:45:40.275Z,2.84
2022-12-20T01:48:48.291Z,2.85
2022-12-20T01:52:01.139Z,2.80
2022-12-20T01:55:11.150Z,2.78
2022-12-20T01:58:20.737Z,2.79
2022-12-20T02:01:27.159Z,2.70
2022-12-20T02:04:32.950Z,2.73
2022-12-20T02:07:39.153Z,2.75
2022-12-20T02:11:00.267Z,2.69
2022-12-20T02:14:14.038Z,2.65
2022-12-20T02:17:23.352Z,2.67
2022-12-20T02:20:55.907Z,2.68
2022-12-20T02:24:30.822Z,2.68
2022-12-20T02:27:56.484Z,2.67
2022-12-20T02:31:12.164Z,2.62
2022-12-20T02:34:18.591Z,2.54
2022-12-20T02:37:23.879Z,2.61
2022-12-20T02:40:39.348Z,2.60
2022-12-20T02:44:05.100Z,2.59
2022-12-20T02:47:14.447Z,2.60
2022-12-20T02:50:26.610Z,2.55
2022-12-20T02:53:37.525Z,2.58
2022-12-20T02:56:48.792Z,2.60
2022-12-20T02:59:58.909Z,2.53
2022-12-20T03:03:27.244Z,2.58
2022-12-20T03:06:37.403Z,2.58
2022-12-20T03:09:44.883Z,2.59
2022-12-20T03:12:53.409Z,2.65
2022-12-20T03:16:04.694Z,2.58
2022-12-20T03:19:13.579Z,2.62
2022-12-20T03:22:19.615Z,2.59
2022-12-20T03:25:25.632Z,2.59
2022-12-20T03:28:33.441Z,2.58
2022-12-20T03:31:43.430Z,2.53
2022-12-20T03:34:53.545Z,2.50
2022-12-20T03:38:05.959Z,2.47
2022-12-20T03:41:14.999Z,2.47
2022-12-20T03:44:21.486Z,2.50
2022-12-20T03:47:30.775Z,2.46
2022-12-20T03:50:42.356Z,2.47
2022-12-20T03:53:51.516Z,2.48
2022-12-20T03:57:02.639Z,2.46
2022-12-20T04:00:12.898Z,2.50
2022-12-20T04:03:23.790Z,2.48
2022-12-20T04:06:31.732Z,2.47
2022-12-20T04:09:40.234Z,2.47
2022-12-20T04:12:55.061Z,2.47
2022-12-20T04:16:02.135Z,2.48
2022-12-20T04:19:15.425Z,2.48
2022-12-20T04:22:27.259Z,2.46
2022-12-20T04:25:42.045Z,2.46
2022-12-20T04:28:56.145Z,2.44
2022-12-20T04:32:03.472Z,2.49
2022-12-20T04:35:11.053Z,2.48
2022-12-20T04:38:21.690Z,2.45
2022-12-20T04:41:32.405Z,2.47
2022-12-20T04:44:49.971Z,2.46
2022-12-20T04:48:21.020Z,2.45
2022-12-20T04:51:29.265Z,2.47
2022-12-20T04:54:38.702Z,2.40
2022-12-20T04:57:53.275Z,2.44
2022-12-20T05:00:59.373Z,2.50
2022-12-20T05:07:30.183Z,2.51
2022-12-20T05:10:37.531Z,2.53
2022-12-20T05:13:43.603Z,2.54
2022-12-20T05:16:51.679Z,2.52
2022-12-20T05:19:59.465Z,2.50
2022-12-20T05:23:19.090Z,2.50
2022-12-20T05:26:32.163Z,2.49
2022-12-20T05:29:40.157Z,2.51
2022-12-20T05:32:46.546Z,2.55
2022-12-20T05:35:56.480Z,2.51
2022-12-20T05:39:06.284Z,2.44
2022-12-20T05:42:18.253Z,2.50
2022-12-20T05:45:23.981Z,2.53
2022-12-20T05:48:46.175Z,2.53
2022-12-20T05:51:53.827Z,2.53
2022-12-20T05:55:13.228Z,2.48
2022-12-20T05:58:20.706Z,2.51
2022-12-20T06:01:34.588Z,2.49
2022-12-20T06:04:41.978Z,2.50
2022-12-20T06:07:54.371Z,2.49
2022-12-20T06:11:02.252Z,2.54
2022-12-20T06:14:16.237Z,2.58
2022-12-20T06:17:29.749Z,2.52
2022-12-20T06:20:37.351Z,2.62
2022-12-20T06:23:46.419Z,2.63
2022-12-20T06:26:52.863Z,2.64
2022-12-20T06:30:04.579Z,2.69
2022-12-20T06:33:21.384Z,2.66
2022-12-20T06:36:36.797Z,2.66
2022-12-20T06:39:41.574Z,2.65
2022-12-20T06:42:47.742Z,2.66
2022-12-20T06:45:55.977Z,2.65
2022-12-20T06:49:06.026Z,2.67
2022-12-20T06:52:13.195Z,2.71
2022-12-20T06:55:26.890Z,2.75
2022-12-20T06:58:32.182Z,2.76
2022-12-20T07:01:40.502Z,2.79
2022-12-20T07:04:45.294Z,2.79
2022-12-20T07:07:53.764Z,2.77
2022-12-20T07:11:04.640Z,2.81
2022-12-20T07:14:12.554Z,2.79
2022-12-20T07:17:20.506Z,2.80
2022-12-20T07:20:33.068Z,2.81
2022-12-20T07:23:38.719Z,2.80
2022-12-20T07:26:45.018Z,2.80
2022-12-20T07:29:52.994Z,2.82
2022-12-20T07:33:01.776Z,2.80
2022-12-20T07:36:10.337Z,2.81
2022-12-20T07:39:16.220Z,2.84
2022-12-20T07:42:22.150Z,2.83
2022-12-20T07:45:30.615Z,2.91
2022-12-20T07:48:45.450Z,2.96
2022-12-20T07:51:53.023Z,2.94
2022-12-20T07:55:03.869Z,2.93
2022-12-20T07:58:13.963Z,2.89
2022-12-20T08:01:24.950Z,2.98
2022-12-20T08:04:32.887Z,2.96
2022-12-20T08:07:39.425Z,2.96
2022-12-20T08:10:45.324Z,3.02
2022-12-20T08:13:57.288Z,3.02
2022-12-20T08:17:03.205Z,3.00
2022-12-20T08:20:13.413Z,3.00
2022-12-20T08:23:19.809Z,2.99
2022-12-20T08:26:25.725Z,2.99
2022-12-20T08:29:31.382Z,2.98
2022-12-20T08:32:39.749Z,3.00
2022-12-20T08:36:00.373Z,3.02
2022-12-20T08:39:08.333Z,3.03
2022-12-20T08:42:15.558Z,3.06
2022-12-20T08:45:21.602Z,3.06
2022-12-20T08:48:27.524Z,3.05
2022-12-20T08:51:37.705Z,3.07
2022-12-20T08:54:44.050Z,3.06
2022-12-20T08:57:49.762Z,3.10
2022-12-20T09:00:56.250Z,3.08
2022-12-20T09:04:02.101Z,3.11
2022-12-20T09:07:09.534Z,3.17
2022-12-20T09:10:31.432Z,3.23
2022-12-20T09:13:44.118Z,3.22
2022-12-20T09:16:51.043Z,3.26
2022-12-20T09:19:56.725Z,3.27
2022-12-20T09:23:03.946Z,3.18
2022-12-20T09:26:11.853Z,3.30
2022-12-20T09:29:23.110Z,3.33
2022-12-20T09:32:33.213Z,3.34
2022-12-20T09:35:42.765Z,3.35
2022-12-20T09:38:50.627Z,3.38
2022-12-20T09:41:56.636Z,3.40
2022-12-20T09:45:09.639Z,3.41
2022-12-20T09:48:19.614Z,3.40
2022-12-20T09:51:40.992Z,3.39
2022-12-20T09:54:58.266Z,3.40
2022-12-20T09:58:24.906Z,3.42
2022-12-20T10:01:38.296Z,3.35
2022-12-20T10:04:45.900Z,3.32
2022-12-20T10:07:57.119Z,3.35
2022-12-20T10:11:09.894Z,3.41
2022-12-20T10:14:31.744Z,3.40
2022-12-20T10:17:46.054Z,3.45
2022-12-20T10:21:01.006Z,3.48
2022-12-20T10:24:11.021Z,3.50
2022-12-20T10:27:20.861Z,3.54
2022-12-20T10:30:28.563Z,3.59
2022-12-20T10:33:35.774Z,3.62
2022-12-20T10:36:45.323Z,3.64
2022-12-20T10:39:54.609Z,3.61
2022-12-20T10:43:06.269Z,3.68
2022-12-20T10:46:13.662Z,3.70
2022-12-20T10:49:41.057Z,3.70
2022-12-20T10:52:47.746Z,3.78
2022-12-20T10:55:56.772Z,3.75
2022-12-20T10:59:11.780Z,3.78
2022-12-20T11:02:39.620Z,3.81
2022-12-20T11:05:56.969Z,3.83
2022-12-20T11:09:26.213Z,3.81
2022-12-20T11:12:34.070Z,3.73
2022-12-20T11:15:50.650Z,3.74
2022-12-20T11:19:13.850Z,3.79
2022-12-20T11:22:28.822Z,3.73
2022-12-20T11:25:41.727Z,3.74
2022-12-20T11:28:57.943Z,3.72
2022-12-20T11:32:13.063Z,3.87
2022-12-20T11:35:24.846Z,3.96
2022-12-20T11:38:42.322Z,3.84
2022-12-20T11:41:57.042Z,3.80
2022-12-20T11:45:09.861Z,3.80
2022-12-20T11:49:03.953Z,3.86
2022-12-20T11:52:23.069Z,3.92
2022-12-20T11:55:33.092Z,3.87
2022-12-20T11:58:47.747Z,3.90
2022-12-20T12:01:59.170Z,3.85
2022-12-20T12:05:07.978Z,3.86
2022-12-20T12:08:19.198Z,3.94
2022-12-20T12:14:58.340Z,4.01
2022-12-20T12:18:07.012Z,4.15
2022-12-20T12:21:21.033Z,4.07
2022-12-20T12:24:35.097Z,4.07
2022-12-20T12:27:43.694Z,4.12
2022-12-20T12:31:11.273Z,4.11
2022-12-20T12:34:41.364Z,4.13
2022-12-20T12:38:04.957Z,4.16
2022-12-20T12:41:36.422Z,4.16
2022-12-20T12:44:50.290Z,4.17
2022-12-20T12:47:58.191Z,4.25
2022-12-20T12:51:05.105Z,4.17
2022-12-20T12:54:22.905Z,4.19
2022-12-20T12:57:32.796Z,4.28
2022-12-20T13:00:51.120Z,4.15
2022-12-20T13:04:23.577Z,4.16
2022-12-20T13:07:32.125Z,4.34
2022-12-20T13:14:52.598Z,4.67
2022-12-20T13:17:59.145Z,4.60
2022-12-20T13:21:39.209Z,4.69
2022-12-20T13:24:56.775Z,4.63
2022-12-20T13:28:31.774Z,4.50
2022-12-20T13:31:38.673Z,4.46
2022-12-20T13:34:58.412Z,4.73
2022-12-20T13:38:06.368Z,4.68
2022-12-20T13:41:19.753Z,4.85
2022-12-20T13:44:43.614Z,4.75
2022-12-20T13:47:52.754Z,4.64
2022-12-20T13:50:58.517Z,4.57
2022-12-20T13:54:05.722Z,4.44
2022-12-20T13:57:15.611Z,4.36
2022-12-20T14:00:25.690Z,4.44
2022-12-20T14:03:33.054Z,4.47
2022-12-20T14:06:38.576Z,4.43
2022-12-20T14:09:51.149Z,4.39
2022-12-20T14:12:56.402Z,4.45
2022-12-20T14:16:10.087Z,4.41
2022-12-20T14:19:17.901Z,4.43
2022-12-20T14:22:23.418Z,4.55
2022-12-20T14:25:36.577Z,4.46
2022-12-20T14:28:44.448Z,4.47
2022-12-20T14:31:50.087Z,4.53
2022-12-20T14:35:04.059Z,4.43
2022-12-20T14:38:23.864Z,4.56
2022-12-20T14:41:37.922Z,4.63
2022-12-20T14:44:43.060Z,4.54
2022-12-20T14:47:53.005Z,4.66
2022-12-20T14:51:00.446Z,4.73
2022-12-20T14:54:05.921Z,4.66
2022-12-20T14:57:17.591Z,4.72
2022-12-20T15:00:28.209Z,4.75
2022-12-20T15:03:34.467Z,4.64
2022-12-20T15:06:46.000Z,4.78
2022-12-20T15:09:51.445Z,4.63
2022-12-20T15:13:00.459Z,4.47
2022-12-20T15:16:08.026Z,4.56
2022-12-20T15:19:14.351Z,4.52
2022-12-20T15:22:22.492Z,4.58
2022-12-20T15:25:28.272Z,4.68
2022-12-20T15:28:33.829Z,4.61
2022-12-20T15:31:40.693Z,4.46
2022-12-20T15:34:46.177Z,4.56
2022-12-20T15:37:53.140Z,4.42
2022-12-20T15:41:01.932Z,4.33
2022-12-20T15:44:08.903Z,4.30
2022-12-20T15:47:15.283Z,4.38
2022-12-20T15:50:22.213Z,4.63
2022-12-20T15:53:32.275Z,4.51
2022-12-20T15:56:38.011Z,4.54
2022-12-20T16:00:03.506Z,4.53
2022-12-20T16:03:18.584Z,4.37
2022-12-20T16:06:24.495Z,4.40
2022-12-20T16:09:31.611Z,4.59
2022-12-20T16:12:42.110Z,4.62
2022-12-20T16:15:57.388Z,4.67
2022-12-20T16:19:05.144Z,4.67
2022-12-20T16:22:17.030Z,4.83
2022-12-20T16:25:36.431Z,4.67
2022-12-20T16:28:42.504Z,4.55
2022-12-20T16:31:48.394Z,4.43
2022-12-20T16:34:59.734Z,4.53
2022-12-20T16:38:07.409Z,4.52
2022-12-20T16:41:17.137Z,4.41
2022-12-20T16:44:24.068Z,4.56
2022-12-20T16:47:29.334Z,4.65
2022-12-20T16:50:36.210Z,4.52
2022-12-20T16:54:09.995Z,4.52
2022-12-20T16:57:08.953Z,4.35
2022-12-20T17:00:20.195Z,4.47
2022-12-20T17:03:25.475Z,4.43
2022-12-20T17:06:31.004Z,4.31
2022-12-20T17:13:03.158Z,4.65
2022-12-20T17:16:10.651Z,4.51
2022-12-20T17:19:17.474Z,4.70
2022-12-20T17:22:23.065Z,4.80
2022-12-20T17:25:30.344Z,4.64
2022-12-20T17:28:37.449Z,4.61
2022-12-20T17:31:44.636Z,4.80
2022-12-20T17:34:49.756Z,4.75
2022-12-20T17:37:57.734Z,4.90
2022-12-20T17:41:17.218Z,4.75
2022-12-20T17:44:30.848Z,4.89
2022-12-20T17:47:36.413Z,5.01
2022-12-20T17:50:42.438Z,5.06
2022-12-20T17:53:48.753Z,5.22
2022-12-20T17:56:54.784Z,4.94
2022-12-20T18:00:01.993Z,5.06
2022-12-20T18:03:53.053Z,5.08
2022-12-20T18:06:39.137Z,5.08
2022-12-20T18:09:48.981Z,5.03
2022-12-20T18:12:55.215Z,5.13
2022-12-20T18:16:06.001Z,5.15
2022-12-20T18:19:17.852Z,5.15
2022-12-20T18:22:24.386Z,5.11
2022-12-20T18:25:31.650Z,5.18
2022-12-20T18:28:36.765Z,5.09
2022-12-20T18:31:43.614Z,5.15
2022-12-20T18:34:48.868Z,5.08
2022-12-20T18:37:54.897Z,5.21
2022-12-20T18:41:05.412Z,5.13
2022-12-20T18:44:19.440Z,5.10
2022-12-20T18:47:26.769Z,5.06
2022-12-20T18:50:32.602Z,5.02
2022-12-20T18:53:39.215Z,4.99
2022-12-20T18:56:46.707Z,5.18
2022-12-20T18:59:52.467Z,4.98
2022-12-20T19:03:02.419Z,5.06
2022-12-20T19:06:11.758Z,4.97
2022-12-20T19:09:17.264Z,5.04
2022-12-20T19:12:27.259Z,5.11
2022-12-20T19:15:36.341Z,4.95
2022-12-20T19:18:44.908Z,4.98
2022-12-20T19:21:50.004Z,4.94
2022-12-20T19:24:57.029Z,4.97
2022-12-20T19:28:03.778Z,5.03
2022-12-20T19:31:17.324Z,4.96
2022-12-20T19:34:32.386Z,5.04
2022-12-20T19:37:37.968Z,5.16
2022-12-20T19:40:44.273Z,5.09
2022-12-20T19:43:54.291Z,5.09
2022-12-20T19:47:06.000Z,5.02
2022-12-20T19:50:17.836Z,5.05
2022-12-20T19:53:25.328Z,5.13
2022-12-20T19:56:32.481Z,5.13
2022-12-20T19:59:39.241Z,5.13
2022-12-20T20:02:44.773Z,5.11
2022-12-20T20:05:52.897Z,5.09
2022-12-20T20:08:59.858Z,5.22
2022-12-20T20:12:05.761Z,5.03
2022-12-20T20:15:12.734Z,4.95
2022-12-20T20:18:19.298Z,5.04
2022-12-20T20:21:30.294Z,5.04
2022-12-20T20:24:36.181Z,5.12
2022-12-20T20:27:42.089Z,5.15
2022-12-20T20:30:49.002Z,5.05
2022-12-20T20:33:53.947Z,5.06
2022-12-20T20:37:01.157Z,5.12
2022-12-20T20:40:08.304Z,5.21
2022-12-20T20:43:15.402Z,5.26
2022-12-20T20:46:21.119Z,5.28
2022-12-20T20:49:26.860Z,5.23
2022-12-20T20:52:35.458Z,5.43
2022-12-20T20:55:44.508Z,5.22
2022-12-20T20:58:51.121Z,5.22
2022-12-20T21:02:00.212Z,5.15
2022-12-20T21:08:41.771Z,5.22
2022-12-20T21:11:47.874Z,5.23
2022-12-20T21:15:21.230Z,5.30
2022-12-20T21:18:23.799Z,5.26
2022-12-20T21:21:30.453Z,5.35
2022-12-20T21:24:37.056Z,5.13
2022-12-20T21:27:46.033Z,5.27
2022-12-20T21:31:00.449Z,5.28
2022-12-20T21:34:06.052Z,5.24
2022-12-20T21:37:22.420Z,5.32
2022-12-20T21:40:33.563Z,5.27
2022-12-20T21:43:39.898Z,5.29
2022-12-20T21:46:45.234Z,5.35
2022-12-20T21:49:51.380Z,5.31
2022-12-20T21:52:57.717Z,5.33
2022-12-20T21:56:06.236Z,5.32
2022-12-20T21:59:12.851Z,5.30
2022-12-20T22:02:25.937Z,5.35
2022-12-20T22:05:33.013Z,5.31
2022-12-20T22:08:38.397Z,5.19
2022-12-20T22:11:47.354Z,5.31
2022-12-20T22:14:53.269Z,5.44
2022-12-20T22:18:02.617Z,5.31
2022-12-20T22:21:10.360Z,5.31
2022-12-20T22:24:16.147Z,5.40
2022-12-20T22:27:23.578Z,5.41
2022-12-20T22:30:28.980Z,5.34
2022-12-20T22:33:37.205Z,5.33
2022-12-20T22:36:44.176Z,5.31
2022-12-20T22:39:53.302Z,5.30
2022-12-20T22:43:00.256Z,5.16
2022-12-20T22:50:20.655Z,5.37
2022-12-20T22:53:29.541Z,5.31
2022-12-20T22:56:35.176Z,5.13
2022-12-20T22:59:44.865Z,5.19
2022-12-20T23:02:50.290Z,5.15
2022-12-20T23:05:56.979Z,5.11
2022-12-20T23:09:03.089Z,5.19
2022-12-20T23:12:26.552Z,5.15
2022-12-20T23:15:44.026Z,5.15
2022-12-20T23:18:50.220Z,5.06
2022-12-20T23:22:12.857Z,5.10
2022-12-20T23:25:21.181Z,5.16
2022-12-20T23:28:27.968Z,5.10
2022-12-20T23:31:36.010Z,4.95
2022-12-20T23:34:41.233Z,5.07
2022-12-20T23:37:46.789Z,4.84
2022-12-20T23:40:52.620Z,5.16
2022-12-20T23:43:58.701Z,5.15
2022-12-20T23:47:06.117Z,5.19
2022-12-20T23:50:12.987Z,5.09
2022-12-20T23:53:18.683Z,5.07
2022-12-20T23:56:25.546Z,5.17
2022-12-20T23:59:32.096Z,5.25
